Newvida — V7KQ7 — position and weather

sailwx.info

Track history (hours):
 
Tides and Currents Weather Stations Pressure Air Temp Water Temp Dewpoint Dewpoint Depression Visibility Wind Speed Wind Dir Waves Ship Positions

Newvida

Last reported at 2017-Aug-16 20:30 UTC. Time now 2017-Aug-16 21:50 UTC.
Position N 40°32' E 014°14'.

Length 56 m; draft 2.4 m.

Type: Pleasure craft. MMSI: 538080049.

Date/timePositionNaut miles runAvg speedWind from/ knotsBaromVisibWave heightAir tempDewpointWater temp
2017-Aug-16 20:30N 40°32' E 014°14'0 0.0
2017-Aug-16 17:27N 40°32' E 014°14'0 0.0
2017-Aug-16 16:51N 40°32' E 014°14'0 0.0
2017-Aug-16 16:30N 40°32' E 014°14'0 0.1
2017-Aug-16 16:00N 40°32' E 014°14'0 0.1
2017-Aug-16 15:24N 40°32' E 014°14'0 0.1
2017-Aug-16 15:00N 40°32' E 014°14'0 0.1
2017-Aug-16 14:30N 40°32' E 014°14'0 0.1
2017-Aug-16 14:00N 40°32' E 014°14'0 0.0
2017-Aug-16 13:30N 40°32' E 014°14'0 0.0
2017-Aug-16 12:48N 40°32' E 014°14'0 0.1
2017-Aug-16 12:27N 40°32' E 014°14'0 0.0
2017-Aug-16 11:15N 40°32' E 014°14'0 0.1
2017-Aug-16 11:00N 40°32' E 014°14'0 0.0
2017-Aug-16 10:30N 40°32' E 014°14'0 0.0
2017-Aug-16 10:00N 40°32' E 014°14'0 0.0
2017-Aug-16 09:24N 40°32' E 014°14'0 0.0
2017-Aug-16 09:00N 40°32' E 014°14'0 0.0
2017-Aug-16 08:30N 40°32' E 014°14'0 0.0
2017-Aug-16 08:00N 40°32' E 014°14'0 0.0
2017-Aug-16 07:30N 40°32' E 014°14'0 0.0
2017-Aug-16 07:00N 40°32' E 014°14'0 0.0
2017-Aug-16 06:30N 40°32' E 014°14'0 0.0
2017-Aug-16 06:00N 40°32' E 014°14'0 0.0
2017-Aug-16 05:30N 40°32' E 014°14'0 0.1
2017-Aug-16 05:00N 40°32' E 014°14'0 0.0
2017-Aug-16 04:30N 40°32' E 014°14'0 0.0
2017-Aug-16 03:12N 40°32' E 014°14'0 0.0
2017-Aug-16 02:42N 40°32' E 014°14'0 0.0
2017-Aug-16 02:21N 40°32' E 014°14'0 0.0
2017-Aug-16 01:57N 40°32' E 014°14'0 0.0
2017-Aug-16 01:30N 40°32' E 014°14'0 0.0
2017-Aug-16 01:00N 40°32' E 014°14'0 0.0
2017-Aug-16 00:21N 40°32' E 014°14'0 0.0
2017-Aug-16 00:00N 40°32' E 014°14'0 0.0
2017-Aug-15 23:30N 40°32' E 014°14'0 0.0
2017-Aug-15 22:48N 40°32' E 014°14'0 0.0
2017-Aug-15 22:27N 40°32' E 014°14'0 0.0
2017-Aug-15 21:57N 40°32' E 014°14'0 0.0
2017-Aug-15 21:27N 40°32' E 014°14'0 0.0
2017-Aug-15 21:00N 40°32' E 014°14'1 2.8
2017-Aug-15 20:30N 40°32' E 014°16'611.7
2017-Aug-15 20:00N 40°38' E 014°18'6 6.0
2017-Aug-15 18:57N 40°43' E 014°22'1 3.4
2017-Aug-15 18:30N 40°43' E 014°20'611.4
2017-Aug-15 18:00N 40°43' E 014°13'611.5
2017-Aug-15 17:30N 40°43' E 014°05'2811.2
2017-Aug-15 14:58N 40°57' E 013°33'140 9.0
2017-Aug-14 23:23N 42°22' E 011°04'811.4
2017-Aug-14 22:41N 42°28' E 010°57'211.0
2017-Aug-14 22:30N 42°29' E 010°55'711.2
2017-Aug-14 21:51N 42°35' E 010°49'411.6
2017-Aug-14 21:30N 42°39' E 010°46'612.0
2017-Aug-14 21:00N 42°44' E 010°44'5 9.9
2017-Aug-14 20:30N 42°49' E 010°43'2 0.1
2017-Aug-14 05:44N 42°49' E 010°45'0 0.0
2017-Aug-14 02:17N 42°49' E 010°45'0 0.0
2017-Aug-14 01:38N 42°49' E 010°45'0 0.0
2017-Aug-14 00:23N 42°49' E 010°45'0 0.0
2017-Aug-13 23:29N 42°49' E 010°45'0 0.0
2017-Aug-13 22:59N 42°49' E 010°45'0 0.0
2017-Aug-13 22:29N 42°49' E 010°45'0 0.0
2017-Aug-13 21:59N 42°49' E 010°45'0 0.0
2017-Aug-13 21:17N 42°49' E 010°45'0 0.0
2017-Aug-13 20:59N 42°49' E 010°45'0 0.0
2017-Aug-13 19:53N 42°49' E 010°45'0 0.1
2017-Aug-13 19:29N 42°49' E 010°45'0 0.0
2017-Aug-13 18:59N 42°49' E 010°45'0 0.0
2017-Aug-13 18:29N 42°49' E 010°45'0 0.0
2017-Aug-13 17:38N 42°49' E 010°45'0 0.1
2017-Aug-13 17:26N 42°49' E 010°45'0 0.0
2017-Aug-13 16:59N 42°49' E 010°45'0 0.1
2017-Aug-13 16:29N 42°49' E 010°45'0 0.0
2017-Aug-13 14:59N 42°49' E 010°45'0 0.0
2017-Aug-13 14:20N 42°49' E 010°45'0 0.1
2017-Aug-13 13:59N 42°49' E 010°45'0 0.0
2017-Aug-13 10:23N 42°49' E 010°45'0 0.1
2017-Aug-13 09:59N 42°49' E 010°45'0 0.0
2017-Aug-13 08:53N 42°49' E 010°45'0 0.0
2017-Aug-13 07:35N 42°49' E 010°45'0 0.2
2017-Aug-13 05:53N 42°49' E 010°45'2 5.1
2017-Aug-13 05:30N 42°50' E 010°43'1511.3
2017-Aug-13 04:12N 42°57' E 010°25'411.5
2017-Aug-13 03:49N 42°59' E 010°20'411.4
2017-Aug-13 03:30N 43°01' E 010°16'611.5
2017-Aug-13 03:00N 43°04' E 010°10'611.6
2017-Aug-13 02:30N 43°08' E 010°04'611.3
2017-Aug-13 01:59N 43°13' E 009°59'510.9
2017-Aug-13 01:30N 43°17' E 009°54'511.1
2017-Aug-13 01:00N 43°21' E 009°49'511.0
2017-Aug-13 00:30N 43°25' E 009°44'611.6
2017-Aug-13 00:00N 43°30' E 009°40'611.6
2017-Aug-12 23:30N 43°36' E 009°38'611.5
2017-Aug-12 23:00N 43°41' E 009°35'611.4
2017-Aug-12 22:30N 43°46' E 009°32'611.3
2017-Aug-12 22:00N 43°51' E 009°29'611.2
2017-Aug-12 21:30N 43°57' E 009°26'611.2
2017-Aug-12 21:00N 44°02' E 009°23'611.2
2017-Aug-12 20:30N 44°07' E 009°20'611.3
2017-Aug-12 20:00N 44°12' E 009°18'611.1
2017-Aug-12 19:29N 44°18' E 009°14'1 2.6
2017-Aug-12 18:58N 44°18' E 009°13'0 0.0
2017-Aug-12 18:16N 44°18' E 009°13'0 0.0
2017-Aug-12 17:01N 44°18' E 009°13'0 0.0
2017-Aug-12 16:49N 44°18' E 009°13'0 0.0
2017-Aug-12 16:28N 44°18' E 009°13'0 0.0
2017-Aug-12 15:34N 44°18' E 009°13'0 0.0
2017-Aug-12 15:16N 44°18' E 009°13'0 0.0
2017-Aug-12 14:49N 44°18' E 009°13'0 0.0
2017-Aug-12 14:28N 44°18' E 009°13'0 0.0
2017-Aug-12 13:52N 44°18' E 009°13'0 0.0
2017-Aug-12 13:25N 44°18' E 009°13'0 0.0
2017-Aug-12 12:52N 44°18' E 009°13'0 0.0
2017-Aug-12 12:28N 44°18' E 009°13'0 0.0
2017-Aug-12 11:49N 44°18' E 009°13'0 0.0
2017-Aug-12 11:22N 44°18' E 009°13'0 0.0
2017-Aug-12 10:55N 44°18' E 009°13'0 0.0
2017-Aug-12 10:28N 44°18' E 009°13'0 0.0
2017-Aug-12 09:49N 44°18' E 009°13'0 0.0
2017-Aug-12 09:25N 44°18' E 009°13'0 0.0
2017-Aug-12 08:40N 44°18' E 009°13'0 0.0
2017-Aug-12 08:28N 44°18' E 009°13'0 0.0
2017-Aug-12 07:58N 44°18' E 009°13'0 0.0
2017-Aug-12 07:19N 44°18' E 009°13'0 0.0
2017-Aug-12 06:58N 44°18' E 009°13'0 0.0
2017-Aug-12 06:25N 44°18' E 009°13'0 0.0
2017-Aug-12 05:55N 44°18' E 009°13'0 0.0
2017-Aug-12 05:25N 44°18' E 009°13'0 0.0
2017-Aug-12 04:55N 44°18' E 009°13'0 0.0
2017-Aug-12 04:28N 44°18' E 009°13'0 0.0
2017-Aug-12 03:55N 44°18' E 009°13'0 0.0
2017-Aug-12 03:22N 44°18' E 009°13'0 0.0
2017-Aug-12 02:34N 44°18' E 009°13'0 0.0
2017-Aug-12 02:25N 44°18' E 009°13'0 0.0
2017-Aug-12 01:55N 44°18' E 009°13'0 0.0
2017-Aug-12 01:28N 44°18' E 009°13'0 0.0
2017-Aug-11 23:37N 44°18' E 009°13'0 0.0
2017-Aug-11 23:28N 44°18' E 009°13'0 0.0
2017-Aug-11 22:52N 44°18' E 009°13'0 0.0
2017-Aug-11 21:55N 44°18' E 009°13'0 0.0
2017-Aug-11 21:28N 44°18' E 009°13'0 0.0
2017-Aug-11 19:49N 44°18' E 009°13'0 0.0
2017-Aug-11 19:22N 44°18' E 009°13'0 0.0
2017-Aug-11 18:55N 44°18' E 009°13'0 0.0
2017-Aug-11 18:22N 44°18' E 009°13'0 0.0
2017-Aug-11 17:58N 44°18' E 009°13'0 0.0
2017-Aug-11 17:28N 44°18' E 009°13'0 0.0
2017-Aug-11 16:49N 44°18' E 009°13'0 0.0
2017-Aug-11 16:28N 44°18' E 009°13'0 0.0
2017-Aug-11 15:01N 44°18' E 009°13'0 0.0
2017-Aug-11 14:46N 44°18' E 009°13'0 0.0
2017-Aug-11 13:16N 44°18' E 009°13'0 0.0
2017-Aug-11 12:52N 44°18' E 009°13'0 0.0
2017-Aug-11 12:28N 44°18' E 009°13'0 0.0
2017-Aug-11 11:55N 44°18' E 009°13'0 0.0
2017-Aug-11 10:25N 44°18' E 009°13'0 0.0
2017-Aug-11 09:46N 44°18' E 009°13'0 0.0
2017-Aug-11 09:25N 44°18' E 009°13'0 0.0
2017-Aug-11 08:58N 44°18' E 009°13'0 0.0
2017-Aug-11 06:40N 44°18' E 009°13'0 0.0
2017-Aug-11 06:22N 44°18' E 009°13'0 0.0
2017-Aug-11 05:55N 44°18' E 009°13'0 0.0
2017-Aug-11 05:25N 44°18' E 009°13'0 0.0
2017-Aug-11 04:55N 44°18' E 009°13'0 0.0
2017-Aug-11 03:40N 44°18' E 009°13'0 0.0
2017-Aug-11 03:25N 44°18' E 009°13'0 0.0
2017-Aug-11 02:55N 44°18' E 009°13'0 0.0
2017-Aug-11 02:25N 44°18' E 009°13'0 0.0
2017-Aug-11 01:55N 44°18' E 009°13'0 0.0
2017-Aug-11 01:28N 44°18' E 009°13'0 0.0
2017-Aug-11 00:34N 44°18' E 009°13'0 0.0
2017-Aug-11 00:28N 44°18' E 009°13'0 0.0
2017-Aug-10 23:49N 44°18' E 009°13'0 0.0
2017-Aug-10 17:52N 44°18' E 009°13'0 0.0
2017-Aug-10 15:43N 44°18' E 009°13'0 0.0
2017-Aug-10 15:19N 44°18' E 009°13'0 0.0
2017-Aug-10 14:52N 44°18' E 009°13'0 0.0
2017-Aug-10 12:22N 44°18' E 009°13'0 0.0
2017-Aug-10 11:10N 44°18' E 009°13'0 0.0
2017-Aug-10 10:40N 44°18' E 009°13'0 0.0
2017-Aug-10 10:28N 44°18' E 009°13'0 0.0
2017-Aug-10 09:59N 44°18' E 009°13'0 0.3
2017-Aug-10 09:27N 44°18' E 009°13'0 0.6
2017-Aug-10 08:59N 44°18' E 009°13'1 1.8
2017-Aug-10 08:30N 44°18' E 009°14'510.6
2017-Aug-10 08:00N 44°14' E 009°09'510.3
2017-Aug-10 07:30N 44°11' E 009°03'510.1
2017-Aug-10 07:00N 44°08' E 008°57'511.0
2017-Aug-10 06:30N 44°05' E 008°51'710.7
2017-Aug-10 05:53N 44°02' E 008°43'410.6
2017-Aug-10 05:29N 43°60' E 008°37'510.6
2017-Aug-10 04:59N 43°57' E 008°31'3610.5
2017-Aug-10 01:32N 43°40' E 007°47'110.2
2017-Aug-10 01:29N 43°40' E 007°47'1810.3
2017-Aug-09 23:46N 43°34' E 007°24'410.3
2017-Aug-09 23:20N 43°32' E 007°18'410.3
2017-Aug-09 22:55N 43°32' E 007°12'4 9.9
2017-Aug-09 22:30N 43°31' E 007°06'2 4.0
2017-Aug-09 22:00N 43°32' E 007°04'1 1.7
2017-Aug-09 21:30N 43°31' E 007°04'0 0.0
2017-Aug-09 21:00N 43°31' E 007°04'0 0.0
2017-Aug-09 20:25N 43°31' E 007°04'0 0.0
2017-Aug-09 19:55N 43°31' E 007°04'0 0.0
2017-Aug-09 19:10N 43°31' E 007°04'0 0.1
2017-Aug-09 18:58N 43°31' E 007°04'0 0.0
2017-Aug-09 18:25N 43°31' E 007°04'0 0.0
2017-Aug-09 17:58N 43°31' E 007°04'0 0.0
2017-Aug-09 17:28N 43°31' E 007°04'0 0.0
2017-Aug-09 16:58N 43°31' E 007°04'0 0.0
2017-Aug-09 16:28N 43°31' E 007°04'0 0.0
2017-Aug-09 15:49N 43°31' E 007°04'0 0.0
2017-Aug-09 15:25N 43°31' E 007°04'0 0.0
2017-Aug-09 14:49N 43°31' E 007°04'0 0.0
2017-Aug-09 14:28N 43°31' E 007°04'0 0.0
2017-Aug-09 13:58N 43°31' E 007°04'0 0.0
2017-Aug-09 13:28N 43°31' E 007°04'0 0.0
2017-Aug-09 12:58N 43°31' E 007°04'0 0.0
2017-Aug-09 12:28N 43°31' E 007°04'0 0.0
2017-Aug-09 11:55N 43°31' E 007°04'0 0.0
2017-Aug-09 11:28N 43°31' E 007°04'0 0.0
2017-Aug-09 10:58N 43°31' E 007°04'0 0.0
2017-Aug-09 10:28N 43°31' E 007°04'0 0.0
2017-Aug-09 09:55N 43°31' E 007°04'0 0.0
2017-Aug-09 09:28N 43°31' E 007°04'0 0.0
2017-Aug-09 08:55N 43°31' E 007°04'0 0.0
2017-Aug-09 08:28N 43°31' E 007°04'0 0.0
2017-Aug-09 07:58N 43°31' E 007°04'0 0.0
2017-Aug-09 07:28N 43°31' E 007°04'0 0.0
2017-Aug-09 06:58N 43°31' E 007°04'0 0.0
2017-Aug-09 06:28N 43°31' E 007°04'0 0.0
2017-Aug-09 05:58N 43°31' E 007°04'0 0.0
2017-Aug-09 05:28N 43°31' E 007°04'0 0.1
2017-Aug-09 04:58N 43°31' E 007°04'0 0.0
2017-Aug-09 04:25N 43°31' E 007°04'0 0.0
2017-Aug-09 03:58N 43°31' E 007°04'0 0.0
2017-Aug-09 03:28N 43°31' E 007°04'0 0.0
2017-Aug-09 02:58N 43°31' E 007°04'0 0.0
2017-Aug-09 02:28N 43°31' E 007°04'0 0.0
2017-Aug-09 01:58N 43°31' E 007°04'0 0.0
2017-Aug-09 01:28N 43°31' E 007°04'0 0.0
2017-Aug-09 00:58N 43°31' E 007°04'0 0.0
2017-Aug-09 00:25N 43°31' E 007°04'0 0.0
2017-Aug-08 23:49N 43°31' E 007°04'0 0.0
2017-Aug-08 23:28N 43°31' E 007°04'0 0.0
2017-Aug-08 22:58N 43°31' E 007°04'0 0.0
2017-Aug-08 22:19N 43°31' E 007°04'0 0.1
2017-Aug-08 21:58N 43°31' E 007°04'0 0.0
2017-Aug-08 21:22N 43°31' E 007°04'0 0.0
2017-Aug-08 20:52N 43°31' E 007°04'0 0.0
2017-Aug-08 20:25N 43°31' E 007°04'0 0.0
2017-Aug-08 19:58N 43°31' E 007°04'0 0.0
2017-Aug-08 19:25N 43°31' E 007°04'0 0.0
2017-Aug-08 18:58N 43°31' E 007°04'0 0.0
2017-Aug-08 18:25N 43°31' E 007°04'0 0.0
2017-Aug-08 17:55N 43°31' E 007°04'0 0.0
2017-Aug-08 17:28N 43°31' E 007°04'0 0.0
2017-Aug-08 16:58N 43°31' E 007°04'0 0.0
2017-Aug-08 16:28N 43°31' E 007°04'0 0.0
2017-Aug-08 15:58N 43°31' E 007°04'0 0.0
2017-Aug-08 15:28N 43°31' E 007°04'0 0.0
2017-Aug-08 14:58N 43°31' E 007°04'0 0.0
2017-Aug-08 14:28N 43°31' E 007°04'0 0.0
2017-Aug-08 13:58N 43°31' E 007°04'0 0.0
2017-Aug-08 13:28N 43°31' E 007°04'0 0.0
2017-Aug-08 12:58N 43°31' E 007°04'0 0.0
2017-Aug-08 12:28N 43°31' E 007°04'0 0.0
2017-Aug-08 11:58N 43°31' E 007°04'0 0.0
2017-Aug-08 11:28N 43°31' E 007°04'0 0.0
2017-Aug-08 10:58N 43°31' E 007°04'0 0.0
2017-Aug-08 10:28N 43°31' E 007°04'0 0.0
2017-Aug-08 09:55N 43°31' E 007°04'0 0.0
2017-Aug-08 09:28N 43°31' E 007°04'0 0.1
2017-Aug-08 08:58N 43°31' E 007°04'0 0.1
2017-Aug-08 08:28N 43°31' E 007°04'0 0.0
2017-Aug-08 07:52N 43°31' E 007°04'0 0.0
2017-Aug-08 07:28N 43°31' E 007°04'0 0.0
2017-Aug-08 06:52N 43°31' E 007°04'0 0.0
2017-Aug-08 06:28N 43°31' E 007°04'0 0.0
2017-Aug-08 05:58N 43°31' E 007°04'0 0.0
2017-Aug-08 05:25N 43°31' E 007°04'0 0.0
2017-Aug-08 04:55N 43°31' E 007°04'0 0.0
2017-Aug-08 04:28N 43°31' E 007°04'0 0.0
2017-Aug-08 03:52N 43°31' E 007°04'0 0.0
2017-Aug-08 03:28N 43°31' E 007°04'0 0.0
2017-Aug-08 02:58N 43°31' E 007°04'0 0.0
2017-Aug-08 02:28N 43°31' E 007°04'0 0.0
2017-Aug-08 01:58N 43°31' E 007°04'0 0.0
2017-Aug-08 01:28N 43°31' E 007°04'0 0.0
2017-Aug-08 00:58N 43°31' E 007°04'0 0.0
2017-Aug-08 00:28N 43°31' E 007°04'0 0.1
2017-Aug-07 23:58N 43°31' E 007°04'0 0.0
2017-Aug-07 23:28N 43°31' E 007°04'0 0.0
2017-Aug-07 22:58N 43°31' E 007°04'0 0.0
2017-Aug-07 22:28N 43°31' E 007°04'0 0.0
2017-Aug-07 21:58N 43°31' E 007°04'0 0.0
2017-Aug-07 21:28N 43°31' E 007°04'0 0.0
2017-Aug-07 20:58N 43°31' E 007°04'0 0.0
2017-Aug-07 20:28N 43°31' E 007°04'0 0.0
2017-Aug-07 19:49N 43°31' E 007°04'0 0.0
2017-Aug-07 19:19N 43°31' E 007°04'0 0.0
2017-Aug-07 18:58N 43°31' E 007°04'0 0.0
2017-Aug-07 18:22N 43°31' E 007°04'0 0.0
2017-Aug-07 17:55N 43°31' E 007°04'0 0.0
2017-Aug-07 17:22N 43°31' E 007°04'0 0.0
2017-Aug-07 16:55N 43°31' E 007°04'0 0.0
2017-Aug-07 16:25N 43°31' E 007°04'0 0.0
2017-Aug-07 15:58N 43°31' E 007°04'0 0.0
2017-Aug-07 15:25N 43°31' E 007°04'0 0.0
2017-Aug-07 14:55N 43°31' E 007°04'0 0.0
2017-Aug-07 14:28N 43°31' E 007°04'0 0.0
2017-Aug-07 13:55N 43°31' E 007°04'0 0.4
2017-Aug-07 13:31N 43°31' E 007°04'4 8.6
2017-Aug-07 13:00N 43°28' E 007°01'  
Track history (hours):
 
Tides and Currents Weather Stations Pressure Air Temp Water Temp Dewpoint Dewpoint Depression Visibility Wind Speed Wind Dir Waves Ship Positions

Newvida

Last reported at 2017-Aug-16 20:30 UTC. Time now 2017-Aug-16 21:50 UTC.
Position N 40°32' E 014°14'.

Length 56 m; draft 2.4 m.

Type: Pleasure craft. MMSI: 538080049.

Date/timePositionNaut miles runAvg speedWind from/ knotsBaromVisibWave heightAir tempDewpointWater temp
2017-Aug-16 20:30N 40°32' E 014°14'0 0.0
2017-Aug-16 17:27N 40°32' E 014°14'0 0.0
2017-Aug-16 16:51N 40°32' E 014°14'0 0.0
2017-Aug-16 16:30N 40°32' E 014°14'0 0.1
2017-Aug-16 16:00N 40°32' E 014°14'0 0.1
2017-Aug-16 15:24N 40°32' E 014°14'0 0.1
2017-Aug-16 15:00N 40°32' E 014°14'0 0.1
2017-Aug-16 14:30N 40°32' E 014°14'0 0.1
2017-Aug-16 14:00N 40°32' E 014°14'0 0.0
2017-Aug-16 13:30N 40°32' E 014°14'0 0.0
2017-Aug-16 12:48N 40°32' E 014°14'0 0.1
2017-Aug-16 12:27N 40°32' E 014°14'0 0.0
2017-Aug-16 11:15N 40°32' E 014°14'0 0.1
2017-Aug-16 11:00N 40°32' E 014°14'0 0.0
2017-Aug-16 10:30N 40°32' E 014°14'0 0.0
2017-Aug-16 10:00N 40°32' E 014°14'0 0.0
2017-Aug-16 09:24N 40°32' E 014°14'0 0.0
2017-Aug-16 09:00N 40°32' E 014°14'0 0.0
2017-Aug-16 08:30N 40°32' E 014°14'0 0.0
2017-Aug-16 08:00N 40°32' E 014°14'0 0.0
2017-Aug-16 07:30N 40°32' E 014°14'0 0.0
2017-Aug-16 07:00N 40°32' E 014°14'0 0.0
2017-Aug-16 06:30N 40°32' E 014°14'0 0.0
2017-Aug-16 06:00N 40°32' E 014°14'0 0.0
2017-Aug-16 05:30N 40°32' E 014°14'0 0.1
2017-Aug-16 05:00N 40°32' E 014°14'0 0.0
2017-Aug-16 04:30N 40°32' E 014°14'0 0.0
2017-Aug-16 03:12N 40°32' E 014°14'0 0.0
2017-Aug-16 02:42N 40°32' E 014°14'0 0.0
2017-Aug-16 02:21N 40°32' E 014°14'0 0.0
2017-Aug-16 01:57N 40°32' E 014°14'0 0.0
2017-Aug-16 01:30N 40°32' E 014°14'0 0.0
2017-Aug-16 01:00N 40°32' E 014°14'0 0.0
2017-Aug-16 00:21N 40°32' E 014°14'0 0.0
2017-Aug-16 00:00N 40°32' E 014°14'0 0.0
2017-Aug-15 23:30N 40°32' E 014°14'0 0.0
2017-Aug-15 22:48N 40°32' E 014°14'0 0.0
2017-Aug-15 22:27N 40°32' E 014°14'0 0.0
2017-Aug-15 21:57N 40°32' E 014°14'0 0.0
2017-Aug-15 21:27N 40°32' E 014°14'0 0.0
2017-Aug-15 21:00N 40°32' E 014°14'1 2.8
2017-Aug-15 20:30N 40°32' E 014°16'611.7
2017-Aug-15 20:00N 40°38' E 014°18'6 6.0
2017-Aug-15 18:57N 40°43' E 014°22'1 3.4
2017-Aug-15 18:30N 40°43' E 014°20'611.4
2017-Aug-15 18:00N 40°43' E 014°13'611.5
2017-Aug-15 17:30N 40°43' E 014°05'2811.2
2017-Aug-15 14:58N 40°57' E 013°33'140 9.0
2017-Aug-14 23:23N 42°22' E 011°04'811.4
2017-Aug-14 22:41N 42°28' E 010°57'211.0
2017-Aug-14 22:30N 42°29' E 010°55'711.2
2017-Aug-14 21:51N 42°35' E 010°49'411.6
2017-Aug-14 21:30N 42°39' E 010°46'612.0
2017-Aug-14 21:00N 42°44' E 010°44'5 9.9
2017-Aug-14 20:30N 42°49' E 010°43'2 0.1
2017-Aug-14 05:44N 42°49' E 010°45'0 0.0
2017-Aug-14 02:17N 42°49' E 010°45'0 0.0
2017-Aug-14 01:38N 42°49' E 010°45'0 0.0
2017-Aug-14 00:23N 42°49' E 010°45'0 0.0
2017-Aug-13 23:29N 42°49' E 010°45'0 0.0
2017-Aug-13 22:59N 42°49' E 010°45'0 0.0
2017-Aug-13 22:29N 42°49' E 010°45'0 0.0
2017-Aug-13 21:59N 42°49' E 010°45'0 0.0
2017-Aug-13 21:17N 42°49' E 010°45'0 0.0
2017-Aug-13 20:59N 42°49' E 010°45'0 0.0
2017-Aug-13 19:53N 42°49' E 010°45'0 0.1
2017-Aug-13 19:29N 42°49' E 010°45'0 0.0
2017-Aug-13 18:59N 42°49' E 010°45'0 0.0
2017-Aug-13 18:29N 42°49' E 010°45'0 0.0
2017-Aug-13 17:38N 42°49' E 010°45'0 0.1
2017-Aug-13 17:26N 42°49' E 010°45'0 0.0
2017-Aug-13 16:59N 42°49' E 010°45'0 0.1
2017-Aug-13 16:29N 42°49' E 010°45'0 0.0
2017-Aug-13 14:59N 42°49' E 010°45'0 0.0
2017-Aug-13 14:20N 42°49' E 010°45'0 0.1
2017-Aug-13 13:59N 42°49' E 010°45'0 0.0
2017-Aug-13 10:23N 42°49' E 010°45'0 0.1
2017-Aug-13 09:59N 42°49' E 010°45'0 0.0
2017-Aug-13 08:53N 42°49' E 010°45'0 0.0
2017-Aug-13 07:35N 42°49' E 010°45'0 0.2
2017-Aug-13 05:53N 42°49' E 010°45'2 5.1
2017-Aug-13 05:30N 42°50' E 010°43'1511.3
2017-Aug-13 04:12N 42°57' E 010°25'411.5
2017-Aug-13 03:49N 42°59' E 010°20'411.4
2017-Aug-13 03:30N 43°01' E 010°16'611.5
2017-Aug-13 03:00N 43°04' E 010°10'611.6
2017-Aug-13 02:30N 43°08' E 010°04'611.3
2017-Aug-13 01:59N 43°13' E 009°59'510.9
2017-Aug-13 01:30N 43°17' E 009°54'511.1
2017-Aug-13 01:00N 43°21' E 009°49'511.0
2017-Aug-13 00:30N 43°25' E 009°44'611.6
2017-Aug-13 00:00N 43°30' E 009°40'611.6
2017-Aug-12 23:30N 43°36' E 009°38'611.5
2017-Aug-12 23:00N 43°41' E 009°35'611.4
2017-Aug-12 22:30N 43°46' E 009°32'611.3
2017-Aug-12 22:00N 43°51' E 009°29'611.2
2017-Aug-12 21:30N 43°57' E 009°26'611.2
2017-Aug-12 21:00N 44°02' E 009°23'611.2
2017-Aug-12 20:30N 44°07' E 009°20'611.3
2017-Aug-12 20:00N 44°12' E 009°18'611.1
2017-Aug-12 19:29N 44°18' E 009°14'1 2.6
2017-Aug-12 18:58N 44°18' E 009°13'0 0.0
2017-Aug-12 18:16N 44°18' E 009°13'0 0.0
2017-Aug-12 17:01N 44°18' E 009°13'0 0.0
2017-Aug-12 16:49N 44°18' E 009°13'0 0.0
2017-Aug-12 16:28N 44°18' E 009°13'0 0.0
2017-Aug-12 15:34N 44°18' E 009°13'0 0.0
2017-Aug-12 15:16N 44°18' E 009°13'0 0.0
2017-Aug-12 14:49N 44°18' E 009°13'0 0.0
2017-Aug-12 14:28N 44°18' E 009°13'0 0.0
2017-Aug-12 13:52N 44°18' E 009°13'0 0.0
2017-Aug-12 13:25N 44°18' E 009°13'0 0.0
2017-Aug-12 12:52N 44°18' E 009°13'0 0.0
2017-Aug-12 12:28N 44°18' E 009°13'0 0.0
2017-Aug-12 11:49N 44°18' E 009°13'0 0.0
2017-Aug-12 11:22N 44°18' E 009°13'0 0.0
2017-Aug-12 10:55N 44°18' E 009°13'0 0.0
2017-Aug-12 10:28N 44°18' E 009°13'0 0.0
2017-Aug-12 09:49N 44°18' E 009°13'0 0.0
2017-Aug-12 09:25N 44°18' E 009°13'0 0.0
2017-Aug-12 08:40N 44°18' E 009°13'0 0.0
2017-Aug-12 08:28N 44°18' E 009°13'0 0.0
2017-Aug-12 07:58N 44°18' E 009°13'0 0.0
2017-Aug-12 07:19N 44°18' E 009°13'0 0.0
2017-Aug-12 06:58N 44°18' E 009°13'0 0.0
2017-Aug-12 06:25N 44°18' E 009°13'0 0.0
2017-Aug-12 05:55N 44°18' E 009°13'0 0.0
2017-Aug-12 05:25N 44°18' E 009°13'0 0.0
2017-Aug-12 04:55N 44°18' E 009°13'0 0.0
2017-Aug-12 04:28N 44°18' E 009°13'0 0.0
2017-Aug-12 03:55N 44°18' E 009°13'0 0.0
2017-Aug-12 03:22N 44°18' E 009°13'0 0.0
2017-Aug-12 02:34N 44°18' E 009°13'0 0.0
2017-Aug-12 02:25N 44°18' E 009°13'0 0.0
2017-Aug-12 01:55N 44°18' E 009°13'0 0.0
2017-Aug-12 01:28N 44°18' E 009°13'0 0.0
2017-Aug-11 23:37N 44°18' E 009°13'0 0.0
2017-Aug-11 23:28N 44°18' E 009°13'0 0.0
2017-Aug-11 22:52N 44°18' E 009°13'0 0.0
2017-Aug-11 21:55N 44°18' E 009°13'0 0.0
2017-Aug-11 21:28N 44°18' E 009°13'0 0.0
2017-Aug-11 19:49N 44°18' E 009°13'0 0.0
2017-Aug-11 19:22N 44°18' E 009°13'0 0.0
2017-Aug-11 18:55N 44°18' E 009°13'0 0.0
2017-Aug-11 18:22N 44°18' E 009°13'0 0.0
2017-Aug-11 17:58N 44°18' E 009°13'0 0.0
2017-Aug-11 17:28N 44°18' E 009°13'0 0.0
2017-Aug-11 16:49N 44°18' E 009°13'0 0.0
2017-Aug-11 16:28N 44°18' E 009°13'0 0.0
2017-Aug-11 15:01N 44°18' E 009°13'0 0.0
2017-Aug-11 14:46N 44°18' E 009°13'0 0.0
2017-Aug-11 13:16N 44°18' E 009°13'0 0.0
2017-Aug-11 12:52N 44°18' E 009°13'0 0.0
2017-Aug-11 12:28N 44°18' E 009°13'0 0.0
2017-Aug-11 11:55N 44°18' E 009°13'0 0.0
2017-Aug-11 10:25N 44°18' E 009°13'0 0.0
2017-Aug-11 09:46N 44°18' E 009°13'0 0.0
2017-Aug-11 09:25N 44°18' E 009°13'0 0.0
2017-Aug-11 08:58N 44°18' E 009°13'0 0.0
2017-Aug-11 06:40N 44°18' E 009°13'0 0.0
2017-Aug-11 06:22N 44°18' E 009°13'0 0.0
2017-Aug-11 05:55N 44°18' E 009°13'0 0.0
2017-Aug-11 05:25N 44°18' E 009°13'0 0.0
2017-Aug-11 04:55N 44°18' E 009°13'0 0.0
2017-Aug-11 03:40N 44°18' E 009°13'0 0.0
2017-Aug-11 03:25N 44°18' E 009°13'0 0.0
2017-Aug-11 02:55N 44°18' E 009°13'0 0.0
2017-Aug-11 02:25N 44°18' E 009°13'0 0.0
2017-Aug-11 01:55N 44°18' E 009°13'0 0.0
2017-Aug-11 01:28N 44°18' E 009°13'0 0.0
2017-Aug-11 00:34N 44°18' E 009°13'0 0.0
2017-Aug-11 00:28N 44°18' E 009°13'0 0.0
2017-Aug-10 23:49N 44°18' E 009°13'0 0.0
2017-Aug-10 17:52N 44°18' E 009°13'0 0.0
2017-Aug-10 15:43N 44°18' E 009°13'0 0.0
2017-Aug-10 15:19N 44°18' E 009°13'0 0.0
2017-Aug-10 14:52N 44°18' E 009°13'0 0.0
2017-Aug-10 12:22N 44°18' E 009°13'0 0.0
2017-Aug-10 11:10N 44°18' E 009°13'0 0.0
2017-Aug-10 10:40N 44°18' E 009°13'0 0.0
2017-Aug-10 10:28N 44°18' E 009°13'0 0.0
2017-Aug-10 09:59N 44°18' E 009°13'0 0.3
2017-Aug-10 09:27N 44°18' E 009°13'0 0.6
2017-Aug-10 08:59N 44°18' E 009°13'1 1.8
2017-Aug-10 08:30N 44°18' E 009°14'510.6
2017-Aug-10 08:00N 44°14' E 009°09'510.3
2017-Aug-10 07:30N 44°11' E 009°03'510.1
2017-Aug-10 07:00N 44°08' E 008°57'511.0
2017-Aug-10 06:30N 44°05' E 008°51'710.7
2017-Aug-10 05:53N 44°02' E 008°43'410.6
2017-Aug-10 05:29N 43°60' E 008°37'510.6
2017-Aug-10 04:59N 43°57' E 008°31'3610.5
2017-Aug-10 01:32N 43°40' E 007°47'110.2
2017-Aug-10 01:29N 43°40' E 007°47'1810.3
2017-Aug-09 23:46N 43°34' E 007°24'410.3
2017-Aug-09 23:20N 43°32' E 007°18'410.3
2017-Aug-09 22:55N 43°32' E 007°12'4 9.9
2017-Aug-09 22:30N 43°31' E 007°06'2 4.0
2017-Aug-09 22:00N 43°32' E 007°04'1 1.7
2017-Aug-09 21:30N 43°31' E 007°04'0 0.0
2017-Aug-09 21:00N 43°31' E 007°04'0 0.0
2017-Aug-09 20:25N 43°31' E 007°04'0 0.0
2017-Aug-09 19:55N 43°31' E 007°04'0 0.0
2017-Aug-09 19:10N 43°31' E 007°04'0 0.1
2017-Aug-09 18:58N 43°31' E 007°04'0 0.0
2017-Aug-09 18:25N 43°31' E 007°04'0 0.0
2017-Aug-09 17:58N 43°31' E 007°04'0 0.0
2017-Aug-09 17:28N 43°31' E 007°04'0 0.0
2017-Aug-09 16:58N 43°31' E 007°04'0 0.0
2017-Aug-09 16:28N 43°31' E 007°04'0 0.0
2017-Aug-09 15:49N 43°31' E 007°04'0 0.0
2017-Aug-09 15:25N 43°31' E 007°04'0 0.0
2017-Aug-09 14:49N 43°31' E 007°04'0 0.0
2017-Aug-09 14:28N 43°31' E 007°04'0 0.0
2017-Aug-09 13:58N 43°31' E 007°04'0 0.0
2017-Aug-09 13:28N 43°31' E 007°04'0 0.0
2017-Aug-09 12:58N 43°31' E 007°04'0 0.0
2017-Aug-09 12:28N 43°31' E 007°04'0 0.0
2017-Aug-09 11:55N 43°31' E 007°04'0 0.0
2017-Aug-09 11:28N 43°31' E 007°04'0 0.0
2017-Aug-09 10:58N 43°31' E 007°04'0 0.0
2017-Aug-09 10:28N 43°31' E 007°04'0 0.0
2017-Aug-09 09:55N 43°31' E 007°04'0 0.0
2017-Aug-09 09:28N 43°31' E 007°04'0 0.0
2017-Aug-09 08:55N 43°31' E 007°04'0 0.0
2017-Aug-09 08:28N 43°31' E 007°04'0 0.0
2017-Aug-09 07:58N 43°31' E 007°04'0 0.0
2017-Aug-09 07:28N 43°31' E 007°04'0 0.0
2017-Aug-09 06:58N 43°31' E 007°04'0 0.0
2017-Aug-09 06:28N 43°31' E 007°04'0 0.0
2017-Aug-09 05:58N 43°31' E 007°04'0 0.0
2017-Aug-09 05:28N 43°31' E 007°04'0 0.1
2017-Aug-09 04:58N 43°31' E 007°04'0 0.0
2017-Aug-09 04:25N 43°31' E 007°04'0 0.0
2017-Aug-09 03:58N 43°31' E 007°04'0 0.0
2017-Aug-09 03:28N 43°31' E 007°04'0 0.0
2017-Aug-09 02:58N 43°31' E 007°04'0 0.0
2017-Aug-09 02:28N 43°31' E 007°04'0 0.0
2017-Aug-09 01:58N 43°31' E 007°04'0 0.0
2017-Aug-09 01:28N 43°31' E 007°04'0 0.0
2017-Aug-09 00:58N 43°31' E 007°04'0 0.0
2017-Aug-09 00:25N 43°31' E 007°04'0 0.0
2017-Aug-08 23:49N 43°31' E 007°04'0 0.0
2017-Aug-08 23:28N 43°31' E 007°04'0 0.0
2017-Aug-08 22:58N 43°31' E 007°04'0 0.0
2017-Aug-08 22:19N 43°31' E 007°04'0 0.1
2017-Aug-08 21:58N 43°31' E 007°04'0 0.0
2017-Aug-08 21:22N 43°31' E 007°04'0 0.0
2017-Aug-08 20:52N 43°31' E 007°04'0 0.0
2017-Aug-08 20:25N 43°31' E 007°04'0 0.0
2017-Aug-08 19:58N 43°31' E 007°04'0 0.0
2017-Aug-08 19:25N 43°31' E 007°04'0 0.0
2017-Aug-08 18:58N 43°31' E 007°04'0 0.0
2017-Aug-08 18:25N 43°31' E 007°04'0 0.0
2017-Aug-08 17:55N 43°31' E 007°04'0 0.0
2017-Aug-08 17:28N 43°31' E 007°04'0 0.0
2017-Aug-08 16:58N 43°31' E 007°04'0 0.0
2017-Aug-08 16:28N 43°31' E 007°04'0 0.0
2017-Aug-08 15:58N 43°31' E 007°04'0 0.0
2017-Aug-08 15:28N 43°31' E 007°04'0 0.0
2017-Aug-08 14:58N 43°31' E 007°04'0 0.0
2017-Aug-08 14:28N 43°31' E 007°04'0 0.0
2017-Aug-08 13:58N 43°31' E 007°04'0 0.0
2017-Aug-08 13:28N 43°31' E 007°04'0 0.0
2017-Aug-08 12:58N 43°31' E 007°04'0 0.0
2017-Aug-08 12:28N 43°31' E 007°04'0 0.0
2017-Aug-08 11:58N 43°31' E 007°04'0 0.0
2017-Aug-08 11:28N 43°31' E 007°04'0 0.0
2017-Aug-08 10:58N 43°31' E 007°04'0 0.0
2017-Aug-08 10:28N 43°31' E 007°04'0 0.0
2017-Aug-08 09:55N 43°31' E 007°04'0 0.0
2017-Aug-08 09:28N 43°31' E 007°04'0 0.1
2017-Aug-08 08:58N 43°31' E 007°04'0 0.1
2017-Aug-08 08:28N 43°31' E 007°04'0 0.0
2017-Aug-08 07:52N 43°31' E 007°04'0 0.0
2017-Aug-08 07:28N 43°31' E 007°04'0 0.0
2017-Aug-08 06:52N 43°31' E 007°04'0 0.0
2017-Aug-08 06:28N 43°31' E 007°04'0 0.0
2017-Aug-08 05:58N 43°31' E 007°04'0 0.0
2017-Aug-08 05:25N 43°31' E 007°04'0 0.0
2017-Aug-08 04:55N 43°31' E 007°04'0 0.0
2017-Aug-08 04:28N 43°31' E 007°04'0 0.0
2017-Aug-08 03:52N 43°31' E 007°04'0 0.0
2017-Aug-08 03:28N 43°31' E 007°04'0 0.0
2017-Aug-08 02:58N 43°31' E 007°04'0 0.0
2017-Aug-08 02:28N 43°31' E 007°04'0 0.0
2017-Aug-08 01:58N 43°31' E 007°04'0 0.0
2017-Aug-08 01:28N 43°31' E 007°04'0 0.0
2017-Aug-08 00:58N 43°31' E 007°04'0 0.0
2017-Aug-08 00:28N 43°31' E 007°04'0 0.1
2017-Aug-07 23:58N 43°31' E 007°04'0 0.0
2017-Aug-07 23:28N 43°31' E 007°04'0 0.0
2017-Aug-07 22:58N 43°31' E 007°04'0 0.0
2017-Aug-07 22:28N 43°31' E 007°04'0 0.0
2017-Aug-07 21:58N 43°31' E 007°04'0 0.0
2017-Aug-07 21:28N 43°31' E 007°04'0 0.0
2017-Aug-07 20:58N 43°31' E 007°04'0 0.0
2017-Aug-07 20:28N 43°31' E 007°04'0 0.0
2017-Aug-07 19:49N 43°31' E 007°04'0 0.0
2017-Aug-07 19:19N 43°31' E 007°04'0 0.0
2017-Aug-07 18:58N 43°31' E 007°04'0 0.0
2017-Aug-07 18:22N 43°31' E 007°04'0 0.0
2017-Aug-07 17:55N 43°31' E 007°04'0 0.0
2017-Aug-07 17:22N 43°31' E 007°04'0 0.0
2017-Aug-07 16:55N 43°31' E 007°04'0 0.0
2017-Aug-07 16:25N 43°31' E 007°04'0 0.0
2017-Aug-07 15:58N 43°31' E 007°04'0 0.0
2017-Aug-07 15:25N 43°31' E 007°04'0 0.0
2017-Aug-07 14:55N 43°31' E 007°04'0 0.0
2017-Aug-07 14:28N 43°31' E 007°04'0 0.0
2017-Aug-07 13:55N 43°31' E 007°04'0 0.4
2017-Aug-07 13:31N 43°31' E 007°04'4 8.6
2017-Aug-07 13:00N 43°28' E 007°01'  

Dump ship's entire track history